Elbert, Colorado
Current Conditions -  °F | °C
As of 2:54 AM on Saturday 29 Nov 2014 (Local Time) from KMNH Reporting Station
Clear Clear  
Wind Chill: 38°   Ceiling: Unl
Heat Index: 45°   Visibility: 10mi
Dew Point:   Wind: 13mph
Humidity: 17%   Direction: 230°SW
Pressure: 29.84"   Gusts: 21mph
Location:  39.22°N, 104.54°W
Report Text: KMNH 290954Z AUTO 23011G18KT 10SM CLR 07/M17 A2984 RMK AO2
Loading
Personal Weather Stations






























Interactive Weather Map New forecast layout! Learn more

10-Day Weather Forecast

Advertisements
Track Severe Weather on mobile